sensor_id;sensor_type;location;lat;lon;timestamp;pressure;altitude;pressure_sealevel;temperature;humidity
40918;BME280;26644;50.248;19.032;2022-08-21T00:00:51;97738.28;;;18.88;96.54
40918;BME280;26644;50.248;19.032;2022-08-21T00:03:54;97722.75;;;18.87;96.67
40918;BME280;26644;50.248;19.032;2022-08-21T00:06:56;97716.75;;;18.85;96.73
40918;BME280;26644;50.248;19.032;2022-08-21T00:09:59;97718.47;;;18.90;96.82
40918;BME280;26644;50.248;19.032;2022-08-21T00:13:03;97712.00;;;18.86;96.82
40918;BME280;26644;50.248;19.032;2022-08-21T00:16:05;97728.19;;;18.96;96.91
40918;BME280;26644;50.248;19.032;2022-08-21T00:19:07;97723.06;;;18.98;96.67
40918;BME280;26644;50.248;19.032;2022-08-21T00:22:09;97727.94;;;19.01;96.78
40918;BME280;26644;50.248;19.032;2022-08-21T00:25:13;97707.91;;;18.96;96.74
40918;BME280;26644;50.248;19.032;2022-08-21T00:28:17;97704.19;;;19.04;96.91
40918;BME280;26644;50.248;19.032;2022-08-21T00:31:19;97702.56;;;19.03;97.01
40918;BME280;26644;50.248;19.032;2022-08-21T00:34:21;97711.22;;;19.14;96.86
40918;BME280;26644;50.248;19.032;2022-08-21T00:37:23;97708.41;;;19.14;96.83
40918;BME280;26644;50.248;19.032;2022-08-21T00:40:27;97705.28;;;19.15;96.89
40918;BME280;26644;50.248;19.032;2022-08-21T00:43:33;97686.31;;;19.05;96.78
40918;BME280;26644;50.248;19.032;2022-08-21T00:46:36;97698.66;;;19.20;96.62
40918;BME280;26644;50.248;19.032;2022-08-21T00:49:39;97680.13;;;19.12;96.72
40918;BME280;26644;50.248;19.032;2022-08-21T00:52:41;97693.91;;;19.20;96.70
40918;BME280;26644;50.248;19.032;2022-08-21T00:55:44;97684.41;;;19.21;96.67
40918;BME280;26644;50.248;19.032;2022-08-21T00:58:48;97677.69;;;19.22;96.71
40918;BME280;26644;50.248;19.032;2022-08-21T01:01:50;97673.69;;;19.23;96.67
40918;BME280;26644;50.248;19.032;2022-08-21T01:04:52;97679.25;;;19.23;96.94
40918;BME280;26644;50.248;19.032;2022-08-21T01:07:54;97651.97;;;19.13;96.89
40918;BME280;26644;50.248;19.032;2022-08-21T01:10:59;97637.00;;;19.18;96.88
40918;BME280;26644;50.248;19.032;2022-08-21T01:14:02;97653.63;;;19.30;96.69
40918;BME280;26644;50.248;19.032;2022-08-21T01:17:04;97663.72;;;19.35;96.56
40918;BME280;26644;50.248;19.032;2022-08-21T01:20:10;97648.66;;;19.36;96.55
40918;BME280;26644;50.248;19.032;2022-08-21T01:23:13;97652.31;;;19.40;96.51
40918;BME280;26644;50.248;19.032;2022-08-21T01:26:17;97648.38;;;19.41;96.30
40918;BME280;26644;50.248;19.032;2022-08-21T01:29:28;97654.03;;;19.45;96.07
40918;BME280;26644;50.248;19.032;2022-08-21T01:32:32;97649.72;;;19.47;96.09
40918;BME280;26644;50.248;19.032;2022-08-21T01:35:34;97636.06;;;19.42;96.02
40918;BME280;26644;50.248;19.032;2022-08-21T01:38:37;97631.13;;;19.51;95.88
40918;BME280;26644;50.248;19.032;2022-08-21T01:41:39;97620.25;;;19.46;95.68
40918;BME280;26644;50.248;19.032;2022-08-21T01:44:41;97607.91;;;19.43;95.52
40918;BME280;26644;50.248;19.032;2022-08-21T01:47:44;97622.50;;;19.56;95.38
40918;BME280;26644;50.248;19.032;2022-08-21T01:50:46;97604.47;;;19.50;95.28
40918;BME280;26644;50.248;19.032;2022-08-21T01:53:49;97606.28;;;19.58;95.14
40918;BME280;26644;50.248;19.032;2022-08-21T01:56:52;97605.44;;;19.58;95.05
40918;BME280;26644;50.248;19.032;2022-08-21T01:59:55;97594.31;;;19.58;95.24
40918;BME280;26644;50.248;19.032;2022-08-21T02:02:57;97579.06;;;19.52;95.17
40918;BME280;26644;50.248;19.032;2022-08-21T02:05:59;97597.09;;;19.58;95.01
40918;BME280;26644;50.248;19.032;2022-08-21T02:09:02;97597.09;;;19.58;94.89
40918;BME280;26644;50.248;19.032;2022-08-21T02:12:05;97573.31;;;19.45;95.02
40918;BME280;26644;50.248;19.032;2022-08-21T02:15:08;97591.47;;;19.54;95.10
40918;BME280;26644;50.248;19.032;2022-08-21T02:18:11;97579.44;;;19.50;95.16
40918;BME280;26644;50.248;19.032;2022-08-21T02:21:12;97598.19;;;19.53;95.04
40918;BME280;26644;50.248;19.032;2022-08-21T02:24:16;97586.59;;;19.51;95.26
40918;BME280;26644;50.248;19.032;2022-08-21T02:27:17;97597.56;;;19.44;95.12
40918;BME280;26644;50.248;19.032;2022-08-21T02:30:21;97589.75;;;19.50;95.17
40918;BME280;26644;50.248;19.032;2022-08-21T02:33:24;97582.13;;;19.47;95.22
40918;BME280;26644;50.248;19.032;2022-08-21T02:36:26;97573.03;;;19.50;95.31
40918;BME280;26644;50.248;19.032;2022-08-21T02:39:30;97566.47;;;19.42;95.46
40918;BME280;26644;50.248;19.032;2022-08-21T02:42:32;97572.50;;;19.44;95.44
40918;BME280;26644;50.248;19.032;2022-08-21T02:45:34;97560.38;;;19.36;95.51
40918;BME280;26644;50.248;19.032;2022-08-21T02:48:37;97588.47;;;19.47;95.56
40918;BME280;26644;50.248;19.032;2022-08-21T02:51:39;97589.09;;;19.40;95.63
40918;BME280;26644;50.248;19.032;2022-08-21T02:54:43;97600.44;;;19.48;95.60
40918;BME280;26644;50.248;19.032;2022-08-21T03:00:46;97595.56;;;19.45;95.76
40918;BME280;26644;50.248;19.032;2022-08-21T03:03:48;97600.69;;;19.42;95.95
40918;BME280;26644;50.248;19.032;2022-08-21T03:06:51;97599.09;;;19.41;96.12
40918;BME280;26644;50.248;19.032;2022-08-21T03:09:54;97600.25;;;19.40;96.30
40918;BME280;26644;50.248;19.032;2022-08-21T03:12:56;97589.84;;;19.37;96.05
40918;BME280;26644;50.248;19.032;2022-08-21T03:15:58;97591.13;;;19.27;96.15
40918;BME280;26644;50.248;19.032;2022-08-21T03:19:00;97588.34;;;19.27;96.46
40918;BME280;26644;50.248;19.032;2022-08-21T03:22:02;97609.69;;;19.36;96.32
40918;BME280;26644;50.248;19.032;2022-08-21T03:25:06;97591.63;;;19.30;96.28
40918;BME280;26644;50.248;19.032;2022-08-21T03:28:11;97611.28;;;19.37;96.41
40918;BME280;26644;50.248;19.032;2022-08-21T03:31:13;97617.66;;;19.37;96.44
40918;BME280;26644;50.248;19.032;2022-08-21T03:34:15;97617.19;;;19.35;96.54
40918;BME280;26644;50.248;19.032;2022-08-21T03:37:17;97621.19;;;19.34;96.34
40918;BME280;26644;50.248;19.032;2022-08-21T03:40:22;97628.25;;;19.32;96.62
40918;BME280;26644;50.248;19.032;2022-08-21T03:43:24;97634.25;;;19.34;96.69
40918;BME280;26644;50.248;19.032;2022-08-21T03:46:27;97633.09;;;19.35;96.76
40918;BME280;26644;50.248;19.032;2022-08-21T03:49:29;97627.78;;;19.30;96.72
40918;BME280;26644;50.248;19.032;2022-08-21T03:52:31;97637.94;;;19.38;96.52
40918;BME280;26644;50.248;19.032;2022-08-21T03:55:34;97631.59;;;19.37;96.43
40918;BME280;26644;50.248;19.032;2022-08-21T03:58:36;97636.00;;;19.38;96.55
40918;BME280;26644;50.248;19.032;2022-08-21T04:01:39;97638.41;;;19.40;96.71
40918;BME280;26644;50.248;19.032;2022-08-21T04:04:41;97632.84;;;19.40;96.69
40918;BME280;26644;50.248;19.032;2022-08-21T04:07:43;97631.69;;;19.41;96.77
40918;BME280;26644;50.248;19.032;2022-08-21T04:10:49;97628.91;;;19.41;96.87
40918;BME280;26644;50.248;19.032;2022-08-21T04:13:52;97623.22;;;19.37;96.78
40918;BME280;26644;50.248;19.032;2022-08-21T04:16:53;97638.94;;;19.46;96.86
40918;BME280;26644;50.248;19.032;2022-08-21T04:19:55;97615.31;;;19.39;96.71
40918;BME280;26644;50.248;19.032;2022-08-21T04:22:57;97627.00;;;19.45;96.56
40918;BME280;26644;50.248;19.032;2022-08-21T04:26:00;97620.19;;;19.42;96.59
40918;BME280;26644;50.248;19.032;2022-08-21T04:29:03;97618.31;;;19.47;96.41
40918;BME280;26644;50.248;19.032;2022-08-21T04:32:06;97632.03;;;19.55;96.67
40918;BME280;26644;50.248;19.032;2022-08-21T04:35:09;97629.25;;;19.55;96.45
40918;BME280;26644;50.248;19.032;2022-08-21T04:38:11;97633.00;;;19.63;96.48
40918;BME280;26644;50.248;19.032;2022-08-21T04:41:15;97636.25;;;19.65;96.41
40918;BME280;26644;50.248;19.032;2022-08-21T04:44:16;97636.53;;;19.60;96.46
40918;BME280;26644;50.248;19.032;2022-08-21T04:47:19;97641.84;;;19.65;96.25
40918;BME280;26644;50.248;19.032;2022-08-21T04:50:23;97633.84;;;19.64;96.48
40918;BME280;26644;50.248;19.032;2022-08-21T04:53:40;97637.63;;;19.71;96.31
40918;BME280;26644;50.248;19.032;2022-08-21T04:56:46;97631.75;;;19.76;96.33
40918;BME280;26644;50.248;19.032;2022-08-21T04:59:50;97635.78;;;19.79;96.06
40918;BME280;26644;50.248;19.032;2022-08-21T05:02:53;97641.47;;;19.83;95.82
40918;BME280;26644;50.248;19.032;2022-08-21T05:05:57;97645.88;;;19.84;95.63
40918;BME280;26644;50.248;19.032;2022-08-21T05:09:00;97652.22;;;19.84;95.52
40918;BME280;26644;50.248;19.032;2022-08-21T05:12:04;97658.28;;;19.86;95.55
40918;BME280;26644;50.248;19.032;2022-08-21T05:15:07;97664.22;;;19.85;95.51
40918;BME280;26644;50.248;19.032;2022-08-21T05:18:09;97664.53;;;19.83;95.55
40918;BME280;26644;50.248;19.032;2022-08-21T05:21:11;97659.78;;;19.84;95.22
40918;BME280;26644;50.248;19.032;2022-08-21T05:24:14;97671.63;;;19.81;95.69
40918;BME280;26644;50.248;19.032;2022-08-21T05:27:17;97650.00;;;19.74;95.81
40918;BME280;26644;50.248;19.032;2022-08-21T05:30:19;97658.28;;;19.86;95.74
40918;BME280;26644;50.248;19.032;2022-08-21T05:33:22;97657.72;;;19.97;95.58
40918;BME280;26644;50.248;19.032;2022-08-21T05:36:23;97646.84;;;19.91;95.46
40918;BME280;26644;50.248;19.032;2022-08-21T05:39:25;97671.03;;;20.03;94.99
40918;BME280;26644;50.248;19.032;2022-08-21T05:42:28;97663.09;;;20.05;95.02
40918;BME280;26644;50.248;19.032;2022-08-21T05:45:32;97671.53;;;20.09;95.14
40918;BME280;26644;50.248;19.032;2022-08-21T05:48:35;97659.16;;;20.06;94.94
40918;BME280;26644;50.248;19.032;2022-08-21T05:51:39;97653.47;;;20.03;94.54
40918;BME280;26644;50.248;19.032;2022-08-21T05:54:41;97666.41;;;20.11;94.43
40918;BME280;26644;50.248;19.032;2022-08-21T05:57:44;97670.38;;;20.10;94.52
40918;BME280;26644;50.248;19.032;2022-08-21T06:00:48;97674.09;;;20.14;94.67
40918;BME280;26644;50.248;19.032;2022-08-21T06:03:50;97662.28;;;20.05;94.42
40918;BME280;26644;50.248;19.032;2022-08-21T06:06:52;97672.81;;;20.12;94.55
40918;BME280;26644;50.248;19.032;2022-08-21T06:09:54;97674.16;;;20.18;94.85
40918;BME280;26644;50.248;19.032;2022-08-21T06:12:57;97671.47;;;20.21;94.72
40918;BME280;26644;50.248;19.032;2022-08-21T06:16:04;97674.75;;;20.27;94.72
40918;BME280;26644;50.248;19.032;2022-08-21T06:19:07;97673.59;;;20.28;94.63
40918;BME280;26644;50.248;19.032;2022-08-21T06:22:09;97684.03;;;20.31;94.69
40918;BME280;26644;50.248;19.032;2022-08-21T06:25:11;97680.44;;;20.31;94.77
40918;BME280;26644;50.248;19.032;2022-08-21T06:28:14;97683.22;;;20.31;94.42
40918;BME280;26644;50.248;19.032;2022-08-21T06:31:18;97679.53;;;20.26;94.44
40918;BME280;26644;50.248;19.032;2022-08-21T06:34:20;97683.59;;;20.29;94.53
40918;BME280;26644;50.248;19.032;2022-08-21T06:37:22;97684.84;;;20.32;94.57
40918;BME280;26644;50.248;19.032;2022-08-21T06:40:25;97688.09;;;20.34;94.80
40918;BME280;26644;50.248;19.032;2022-08-21T06:43:28;97688.97;;;20.38;94.63
40918;BME280;26644;50.248;19.032;2022-08-21T06:46:30;97696.44;;;20.34;94.00
40918;BME280;26644;50.248;19.032;2022-08-21T06:49:32;97698.06;;;20.19;93.17
40918;BME280;26644;50.248;19.032;2022-08-21T06:52:35;97705.25;;;20.04;93.12
40918;BME280;26644;50.248;19.032;2022-08-21T06:55:38;97692.13;;;19.88;93.03
40918;BME280;26644;50.248;19.032;2022-08-21T06:58:41;97703.81;;;19.78;92.76
40918;BME280;26644;50.248;19.032;2022-08-21T07:01:43;97710.72;;;19.68;92.95
40918;BME280;26644;50.248;19.032;2022-08-21T07:04:45;97704.06;;;19.57;92.56
40918;BME280;26644;50.248;19.032;2022-08-21T07:07:47;97698.91;;;19.43;92.22
40918;BME280;26644;50.248;19.032;2022-08-21T07:10:49;97713.31;;;19.45;91.28
40918;BME280;26644;50.248;19.032;2022-08-21T07:13:52;97712.28;;;19.37;90.60
40918;BME280;26644;50.248;19.032;2022-08-21T07:16:57;97716.50;;;19.31;89.82
40918;BME280;26644;50.248;19.032;2022-08-21T07:19:59;97711.88;;;19.23;89.43
40918;BME280;26644;50.248;19.032;2022-08-21T07:23:03;97719.13;;;19.27;88.74
40918;BME280;26644;50.248;19.032;2022-08-21T07:26:06;97711.06;;;19.22;88.26
40918;BME280;26644;50.248;19.032;2022-08-21T07:29:10;97720.31;;;19.26;87.95
40918;BME280;26644;50.248;19.032;2022-08-21T07:32:12;97703.88;;;19.21;87.37
40918;BME280;26644;50.248;19.032;2022-08-21T07:35:15;97717.03;;;19.37;86.68
40918;BME280;26644;50.248;19.032;2022-08-21T07:38:17;97719.56;;;19.42;86.33
40918;BME280;26644;50.248;19.032;2022-08-21T07:41:21;97723.47;;;19.53;86.19
40918;BME280;26644;50.248;19.032;2022-08-21T07:44:25;97722.56;;;19.65;85.60
40918;BME280;26644;50.248;19.032;2022-08-21T07:47:26;97725.53;;;19.72;85.29
40918;BME280;26644;50.248;19.032;2022-08-21T07:50:29;97724.66;;;19.84;84.82
40918;BME280;26644;50.248;19.032;2022-08-21T07:53:30;97718.44;;;19.91;84.46
40918;BME280;26644;50.248;19.032;2022-08-21T07:56:33;97709.84;;;19.96;84.23
40918;BME280;26644;50.248;19.032;2022-08-21T07:59:37;97725.88;;;20.15;83.70
40918;BME280;26644;50.248;19.032;2022-08-21T08:02:39;97718.56;;;20.26;83.71
40918;BME280;26644;50.248;19.032;2022-08-21T08:05:41;97717.00;;;20.45;83.44
40918;BME280;26644;50.248;19.032;2022-08-21T08:08:43;97725.28;;;20.77;83.24
40918;BME280;26644;50.248;19.032;2022-08-21T08:11:44;97727.94;;;21.05;82.63
40918;BME280;26644;50.248;19.032;2022-08-21T08:14:48;97698.41;;;21.24;81.84
40918;BME280;26644;50.248;19.032;2022-08-21T08:17:50;97719.22;;;21.50;80.72
40918;BME280;26644;50.248;19.032;2022-08-21T08:20:52;97722.66;;;21.63;80.30
40918;BME280;26644;50.248;19.032;2022-08-21T08:23:53;97706.03;;;21.70;79.62
40918;BME280;26644;50.248;19.032;2022-08-21T08:26:55;97717.59;;;21.91;79.25
40918;BME280;26644;50.248;19.032;2022-08-21T08:29:59;97725.84;;;22.31;78.80
40918;BME280;26644;50.248;19.032;2022-08-21T08:33:01;97728.56;;;22.77;78.14
40918;BME280;26644;50.248;19.032;2022-08-21T08:36:04;97717.09;;;23.20;77.49
40918;BME280;26644;50.248;19.032;2022-08-21T08:39:06;97740.41;;;23.99;76.52
40918;BME280;26644;50.248;19.032;2022-08-21T08:42:11;97740.16;;;24.64;75.42
40918;BME280;26644;50.248;19.032;2022-08-21T08:45:18;97740.56;;;25.36;73.63
40918;BME280;26644;50.248;19.032;2022-08-21T08:48:34;97747.13;;;25.90;71.43
40918;BME280;26644;50.248;19.032;2022-08-21T08:51:43;97758.44;;;26.23;69.46
40918;BME280;26644;50.248;19.032;2022-08-21T08:54:50;97757.63;;;26.48;68.20
40918;BME280;26644;50.248;19.032;2022-08-21T08:57:54;97750.44;;;26.61;66.96
40918;BME280;26644;50.248;19.032;2022-08-21T09:00:58;97719.84;;;26.63;65.80
40918;BME280;26644;50.248;19.032;2022-08-21T09:04:01;97722.66;;;26.70;65.42
40918;BME280;26644;50.248;19.032;2022-08-21T09:07:12;97720.66;;;26.71;64.06
40918;BME280;26644;50.248;19.032;2022-08-21T09:10:19;97713.03;;;26.68;64.19
40918;BME280;26644;50.248;19.032;2022-08-21T09:13:30;97721.78;;;26.95;63.00
40918;BME280;26644;50.248;19.032;2022-08-21T09:16:41;97730.97;;;27.17;62.33
40918;BME280;26644;50.248;19.032;2022-08-21T09:19:57;97722.50;;;27.28;61.49
40918;BME280;26644;50.248;19.032;2022-08-21T09:23:12;97732.50;;;27.36;60.95
40918;BME280;26644;50.248;19.032;2022-08-21T09:26:21;97717.25;;;27.19;61.54
40918;BME280;26644;50.248;19.032;2022-08-21T09:29:26;97731.28;;;27.45;61.29
40918;BME280;26644;50.248;19.032;2022-08-21T09:32:33;97731.66;;;27.47;60.97
40918;BME280;26644;50.248;19.032;2022-08-21T09:35:35;97731.38;;;27.27;61.37
40918;BME280;26644;50.248;19.032;2022-08-21T09:38:37;97724.59;;;26.92;61.09
40918;BME280;26644;50.248;19.032;2022-08-21T09:41:39;97719.84;;;26.67;60.71
40918;BME280;26644;50.248;19.032;2022-08-21T09:44:41;97732.31;;;26.37;61.07
40918;BME280;26644;50.248;19.032;2022-08-21T09:47:45;97726.69;;;26.12;61.95
40918;BME280;26644;50.248;19.032;2022-08-21T09:50:48;97673.97;;;25.54;61.90
40918;BME280;26644;50.248;19.032;2022-08-21T09:53:53;97723.81;;;25.68;62.27
40918;BME280;26644;50.248;19.032;2022-08-21T09:56:58;97722.16;;;25.53;62.21
40918;BME280;26644;50.248;19.032;2022-08-21T10:00:23;97732.19;;;25.50;62.71
40918;BME280;26644;50.248;19.032;2022-08-21T10:03:27;97727.00;;;25.70;62.82
40918;BME280;26644;50.248;19.032;2022-08-21T10:06:29;97712.56;;;25.68;62.43
40918;BME280;26644;50.248;19.032;2022-08-21T10:09:31;97721.38;;;25.67;61.98
40918;BME280;26644;50.248;19.032;2022-08-21T10:12:41;97728.84;;;25.27;62.11
40918;BME280;26644;50.248;19.032;2022-08-21T10:15:51;97754.78;;;24.95;62.44
40918;BME280;26644;50.248;19.032;2022-08-21T10:19:16;97751.28;;;24.56;62.75
40918;BME280;26644;50.248;19.032;2022-08-21T10:22:31;97748.25;;;24.24;63.71
40918;BME280;26644;50.248;19.032;2022-08-21T10:25:40;97740.50;;;24.06;64.44
40918;BME280;26644;50.248;19.032;2022-08-21T10:28:49;97737.41;;;23.81;64.57
40918;BME280;26644;50.248;19.032;2022-08-21T10:32:01;97741.59;;;23.61;65.31
40918;BME280;26644;50.248;19.032;2022-08-21T10:35:13;97731.81;;;23.44;65.46
40918;BME280;26644;50.248;19.032;2022-08-21T10:42:17;97725.94;;;23.22;66.64
40918;BME280;26644;50.248;19.032;2022-08-21T10:45:36;97738.31;;;23.21;66.90
40918;BME280;26644;50.248;19.032;2022-08-21T10:48:47;97738.28;;;23.17;67.17
40918;BME280;26644;50.248;19.032;2022-08-21T10:52:00;97735.84;;;23.16;67.30
40918;BME280;26644;50.248;19.032;2022-08-21T10:55:08;97739.81;;;23.11;67.60
40918;BME280;26644;50.248;19.032;2022-08-21T10:58:14;97718.31;;;22.88;68.01
40918;BME280;26644;50.248;19.032;2022-08-21T11:01:26;97739.94;;;22.91;68.38
40918;BME280;26644;50.248;19.032;2022-08-21T11:04:32;97741.06;;;22.87;68.57
40918;BME280;26644;50.248;19.032;2022-08-21T11:07:44;97741.84;;;22.84;68.83
40918;BME280;26644;50.248;19.032;2022-08-21T11:10:51;97722.50;;;22.71;69.02
40918;BME280;26644;50.248;19.032;2022-08-21T11:13:56;97735.66;;;22.71;69.13
40918;BME280;26644;50.248;19.032;2022-08-21T11:17:05;97742.34;;;22.63;69.21
40918;BME280;26644;50.248;19.032;2022-08-21T11:20:12;97720.97;;;22.51;69.54
40918;BME280;26644;50.248;19.032;2022-08-21T11:23:22;97735.88;;;22.58;69.60
40918;BME280;26644;50.248;19.032;2022-08-21T11:26:30;97743.47;;;22.58;70.02
40918;BME280;26644;50.248;19.032;2022-08-21T11:29:37;97744.75;;;22.64;70.49
40918;BME280;26644;50.248;19.032;2022-08-21T11:32:51;97748.91;;;22.74;70.38
40918;BME280;26644;50.248;19.032;2022-08-21T11:36:02;97721.97;;;22.66;69.90
40918;BME280;26644;50.248;19.032;2022-08-21T11:39:15;97742.09;;;22.75;70.30
40918;BME280;26644;50.248;19.032;2022-08-21T11:42:23;97742.59;;;22.81;70.16
40918;BME280;26644;50.248;19.032;2022-08-21T11:45:33;97737.41;;;22.83;70.21
40918;BME280;26644;50.248;19.032;2022-08-21T11:48:46;97737.81;;;22.81;70.12
40918;BME280;26644;50.248;19.032;2022-08-21T11:51:54;97744.25;;;22.85;70.18
40918;BME280;26644;50.248;19.032;2022-08-21T11:55:03;97736.63;;;22.82;70.57
40918;BME280;26644;50.248;19.032;2022-08-21T11:58:12;97737.56;;;22.94;70.75
40918;BME280;26644;50.248;19.032;2022-08-21T12:01:18;97735.63;;;22.98;69.95
40918;BME280;26644;50.248;19.032;2022-08-21T12:04:26;97733.19;;;22.96;70.20
40918;BME280;26644;50.248;19.032;2022-08-21T12:07:33;97727.59;;;22.96;70.18
40918;BME280;26644;50.248;19.032;2022-08-21T12:10:38;97741.19;;;22.94;69.67
40918;BME280;26644;50.248;19.032;2022-08-21T12:13:55;97731.09;;;22.86;69.98
40918;BME280;26644;50.248;19.032;2022-08-21T12:17:04;97737.47;;;22.86;70.21
40918;BME280;26644;50.248;19.032;2022-08-21T12:20:17;97728.75;;;22.91;69.94
40918;BME280;26644;50.248;19.032;2022-08-21T12:23:25;97712.72;;;22.88;70.29
40918;BME280;26644;50.248;19.032;2022-08-21T12:26:31;97717.50;;;22.88;70.02
40918;BME280;26644;50.248;19.032;2022-08-21T12:29:36;97726.81;;;22.96;69.95
40918;BME280;26644;50.248;19.032;2022-08-21T12:32:44;97733.16;;;22.93;70.22
40918;BME280;26644;50.248;19.032;2022-08-21T12:35:48;97727.91;;;22.87;70.30
40918;BME280;26644;50.248;19.032;2022-08-21T12:38:52;97727.75;;;22.77;70.17
40918;BME280;26644;50.248;19.032;2022-08-21T12:42:00;97720.06;;;22.70;70.52
40918;BME280;26644;50.248;19.032;2022-08-21T12:45:07;97723.72;;;22.74;70.54
40918;BME280;26644;50.248;19.032;2022-08-21T12:48:18;97724.19;;;22.80;70.76
40918;BME280;26644;50.248;19.032;2022-08-21T12:51:24;97724.25;;;22.83;70.88
40918;BME280;26644;50.248;19.032;2022-08-21T12:54:30;97725.44;;;22.82;70.54
40918;BME280;26644;50.248;19.032;2022-08-21T12:57:36;97722.50;;;22.75;70.61
40918;BME280;26644;50.248;19.032;2022-08-21T13:00:48;97733.00;;;22.51;70.78
40918;BME280;26644;50.248;19.032;2022-08-21T13:03:53;97717.34;;;22.23;71.24
40918;BME280;26644;50.248;19.032;2022-08-21T13:06:58;97745.25;;;22.20;71.41
40918;BME280;26644;50.248;19.032;2022-08-21T13:10:04;97748.41;;;21.95;71.67
40918;BME280;26644;50.248;19.032;2022-08-21T13:13:10;97744.19;;;21.62;72.48
40918;BME280;26644;50.248;19.032;2022-08-21T13:16:19;97746.06;;;21.35;72.75
40918;BME280;26644;50.248;19.032;2022-08-21T13:19:22;97747.09;;;21.07;73.43
40918;BME280;26644;50.248;19.032;2022-08-21T13:22:27;97742.03;;;20.77;73.84
40918;BME280;26644;50.248;19.032;2022-08-21T13:25:34;97730.84;;;20.41;74.20
40918;BME280;26644;50.248;19.032;2022-08-21T13:28:37;97743.66;;;20.26;75.00
40918;BME280;26644;50.248;19.032;2022-08-21T13:31:40;97748.66;;;20.05;75.54
40918;BME280;26644;50.248;19.032;2022-08-21T13:34:43;97682.94;;;19.40;75.92
40918;BME280;26644;50.248;19.032;2022-08-21T13:37:47;97747.53;;;19.62;76.81
40918;BME280;26644;50.248;19.032;2022-08-21T13:40:53;97726.69;;;19.27;77.34
40918;BME280;26644;50.248;19.032;2022-08-21T13:44:00;97749.66;;;19.24;77.82
40918;BME280;26644;50.248;19.032;2022-08-21T13:47:04;97732.25;;;18.99;78.04
40918;BME280;26644;50.248;19.032;2022-08-21T13:50:07;97755.19;;;18.96;78.44
40918;BME280;26644;50.248;19.032;2022-08-21T13:53:21;97755.09;;;18.80;78.88
40918;BME280;26644;50.248;19.032;2022-08-21T13:56:25;97765.78;;;18.65;79.21
40918;BME280;26644;50.248;19.032;2022-08-21T13:59:31;97763.16;;;18.56;79.57
40918;BME280;26644;50.248;19.032;2022-08-21T14:02:38;97758.84;;;18.47;79.95
40918;BME280;26644;50.248;19.032;2022-08-21T14:05:44;97749.69;;;18.34;80.13
40918;BME280;26644;50.248;19.032;2022-08-21T14:08:50;97753.06;;;18.27;80.56
40918;BME280;26644;50.248;19.032;2022-08-21T14:11:54;97738.44;;;18.05;81.04
40918;BME280;26644;50.248;19.032;2022-08-21T14:15:02;97778.63;;;18.20;81.52
40918;BME280;26644;50.248;19.032;2022-08-21T14:18:13;97766.56;;;18.04;82.04
40918;BME280;26644;50.248;19.032;2022-08-21T14:21:27;97787.84;;;18.00;82.33
40918;BME280;26644;50.248;19.032;2022-08-21T14:24:30;97776.63;;;17.96;82.25
40918;BME280;26644;50.248;19.032;2022-08-21T14:27:33;97779.75;;;17.94;82.45
40918;BME280;26644;50.248;19.032;2022-08-21T14:30:40;97782.88;;;17.93;82.74
40918;BME280;26644;50.248;19.032;2022-08-21T14:33:43;97751.13;;;17.82;82.86
40918;BME280;26644;50.248;19.032;2022-08-21T14:36:46;97768.50;;;17.91;82.85
40918;BME280;26644;50.248;19.032;2022-08-21T14:39:48;97769.69;;;17.90;82.93
40918;BME280;26644;50.248;19.032;2022-08-21T14:42:51;97753.56;;;17.71;83.29
40918;BME280;26644;50.248;19.032;2022-08-21T14:45:55;97767.94;;;17.85;83.38
40918;BME280;26644;50.248;19.032;2022-08-21T14:48:57;97768.63;;;17.82;83.47
40918;BME280;26644;50.248;19.032;2022-08-21T14:51:59;97779.81;;;17.73;83.65
40918;BME280;26644;50.248;19.032;2022-08-21T14:55:01;97780.28;;;17.75;83.70
40918;BME280;26644;50.248;19.032;2022-08-21T14:58:03;97769.50;;;17.62;83.65
40918;BME280;26644;50.248;19.032;2022-08-21T15:01:07;97786.63;;;17.64;83.87
40918;BME280;26644;50.248;19.032;2022-08-21T15:04:09;97785.34;;;17.61;84.11
40918;BME280;26644;50.248;19.032;2022-08-21T15:07:11;97798.88;;;17.63;84.16
40918;BME280;26644;50.248;19.032;2022-08-21T15:10:13;97779.66;;;17.57;84.16
40918;BME280;26644;50.248;19.032;2022-08-21T15:13:15;97795.75;;;17.64;84.18
40918;BME280;26644;50.248;19.032;2022-08-21T15:16:18;97799.81;;;17.67;84.04
40918;BME280;26644;50.248;19.032;2022-08-21T15:19:20;97798.53;;;17.64;84.29
40918;BME280;26644;50.248;19.032;2022-08-21T15:22:22;97807.19;;;17.63;84.27
40918;BME280;26644;50.248;19.032;2022-08-21T15:25:24;97816.88;;;17.56;84.33
40918;BME280;26644;50.248;19.032;2022-08-21T15:28:26;97807.34;;;17.45;84.48
40918;BME280;26644;50.248;19.032;2022-08-21T15:31:30;97806.19;;;17.46;84.69
40918;BME280;26644;50.248;19.032;2022-08-21T15:34:32;97801.84;;;17.36;84.51
40918;BME280;26644;50.248;19.032;2022-08-21T15:37:34;97797.34;;;17.32;85.10
40918;BME280;26644;50.248;19.032;2022-08-21T15:40:36;97781.78;;;17.18;85.33
40918;BME280;26644;50.248;19.032;2022-08-21T15:43:45;97794.72;;;17.14;85.71
40918;BME280;26644;50.248;19.032;2022-08-21T15:46:48;97813.84;;;17.07;85.85
40918;BME280;26644;50.248;19.032;2022-08-21T15:49:50;97803.91;;;17.06;86.07
40918;BME280;26644;50.248;19.032;2022-08-21T15:52:52;97802.16;;;17.01;86.26
40918;BME280;26644;50.248;19.032;2022-08-21T15:55:54;97811.59;;;17.00;86.27
40918;BME280;26644;50.248;19.032;2022-08-21T15:59:00;97810.66;;;16.96;86.33
40918;BME280;26644;50.248;19.032;2022-08-21T16:02:03;97816.56;;;16.94;86.36
40918;BME280;26644;50.248;19.032;2022-08-21T16:05:06;97826.69;;;16.90;86.38
40918;BME280;26644;50.248;19.032;2022-08-21T16:08:08;97822.66;;;16.79;86.56
40918;BME280;26644;50.248;19.032;2022-08-21T16:11:11;97827.59;;;16.73;87.03